sensor_id;sensor_type;location;lat;lon;timestamp;P1;durP1;ratioP1;P2;durP2;ratioP2
63398;SDS011;49533;-34.520;150.798;2023-03-23T00:01:09;4.20;;;3.53;;
63398;SDS011;49533;-34.520;150.798;2023-03-23T00:03:38;5.03;;;3.95;;
63398;SDS011;49533;-34.520;150.798;2023-03-23T00:06:07;8.55;;;3.20;;
63398;SDS011;49533;-34.520;150.798;2023-03-23T00:08:35;4.97;;;3.45;;
63398;SDS011;49533;-34.520;150.798;2023-03-23T00:11:17;3.70;;;3.30;;
63398;SDS011;49533;-34.520;150.798;2023-03-23T00:13:47;7.50;;;3.65;;
63398;SDS011;49533;-34.520;150.798;2023-03-23T00:16:17;5.85;;;3.15;;
63398;SDS011;49533;-34.520;150.798;2023-03-23T00:18:54;4.88;;;3.45;;
63398;SDS011;49533;-34.520;150.798;2023-03-23T00:21:24;4.43;;;3.40;;
63398;SDS011;49533;-34.520;150.798;2023-03-23T00:24:02;4.75;;;3.25;;
63398;SDS011;49533;-34.520;150.798;2023-03-23T00:26:32;3.60;;;2.88;;
63398;SDS011;49533;-34.520;150.798;2023-03-23T00:29:02;3.13;;;2.85;;
63398;SDS011;49533;-34.520;150.798;2023-03-23T00:31:30;3.30;;;3.00;;
63398;SDS011;49533;-34.520;150.798;2023-03-23T00:33:58;10.70;;;3.47;;
63398;SDS011;49533;-34.520;150.798;2023-03-23T00:36:27;4.70;;;3.05;;
63398;SDS011;49533;-34.520;150.798;2023-03-23T00:38:54;7.68;;;3.30;;
63398;SDS011;49533;-34.520;150.798;2023-03-23T00:41:25;7.97;;;3.35;;
63398;SDS011;49533;-34.520;150.798;2023-03-23T00:43:55;6.28;;;3.03;;
63398;SDS011;49533;-34.520;150.798;2023-03-23T00:46:23;4.70;;;3.42;;
63398;SDS011;49533;-34.520;150.798;2023-03-23T00:48:51;5.18;;;3.70;;
63398;SDS011;49533;-34.520;150.798;2023-03-23T00:51:19;5.95;;;4.03;;
63398;SDS011;49533;-34.520;150.798;2023-03-23T00:53:46;4.90;;;3.47;;
63398;SDS011;49533;-34.520;150.798;2023-03-23T00:56:13;5.53;;;3.65;;
63398;SDS011;49533;-34.520;150.798;2023-03-23T00:58:41;6.60;;;3.55;;
63398;SDS011;49533;-34.520;150.798;2023-03-23T01:01:08;4.20;;;2.90;;
63398;SDS011;49533;-34.520;150.798;2023-03-23T01:03:36;3.78;;;2.80;;
63398;SDS011;49533;-34.520;150.798;2023-03-23T01:06:04;4.90;;;3.20;;
63398;SDS011;49533;-34.520;150.798;2023-03-23T01:08:34;5.63;;;2.78;;
63398;SDS011;49533;-34.520;150.798;2023-03-23T01:11:05;3.70;;;2.67;;
63398;SDS011;49533;-34.520;150.798;2023-03-23T01:13:33;3.33;;;2.90;;
63398;SDS011;49533;-34.520;150.798;2023-03-23T01:16:00;3.35;;;2.88;;
63398;SDS011;49533;-34.520;150.798;2023-03-23T01:18:28;4.25;;;2.97;;
63398;SDS011;49533;-34.520;150.798;2023-03-23T01:20:55;4.63;;;2.70;;
63398;SDS011;49533;-34.520;150.798;2023-03-23T01:23:23;3.25;;;2.78;;
63398;SDS011;49533;-34.520;150.798;2023-03-23T01:25:51;3.15;;;2.85;;
63398;SDS011;49533;-34.520;150.798;2023-03-23T01:28:20;3.38;;;3.08;;
63398;SDS011;49533;-34.520;150.798;2023-03-23T01:30:47;5.35;;;2.78;;
63398;SDS011;49533;-34.520;150.798;2023-03-23T01:33:14;4.65;;;3.00;;
63398;SDS011;49533;-34.520;150.798;2023-03-23T01:35:41;4.03;;;2.80;;
63398;SDS011;49533;-34.520;150.798;2023-03-23T01:38:08;3.25;;;2.63;;
63398;SDS011;49533;-34.520;150.798;2023-03-23T01:40:35;3.03;;;2.70;;
63398;SDS011;49533;-34.520;150.798;2023-03-23T01:43:02;2.88;;;2.58;;
63398;SDS011;49533;-34.520;150.798;2023-03-23T01:45:34;2.92;;;2.72;;
63398;SDS011;49533;-34.520;150.798;2023-03-23T01:48:13;3.08;;;2.78;;
63398;SDS011;49533;-34.520;150.798;2023-03-23T01:50:51;3.28;;;2.90;;
63398;SDS011;49533;-34.520;150.798;2023-03-23T01:53:26;2.50;;;2.30;;
63398;SDS011;49533;-34.520;150.798;2023-03-23T01:55:59;2.50;;;2.17;;
63398;SDS011;49533;-34.520;150.798;2023-03-23T01:58:28;2.20;;;2.00;;
63398;SDS011;49533;-34.520;150.798;2023-03-23T02:00:58;2.30;;;2.10;;
63398;SDS011;49533;-34.520;150.798;2023-03-23T02:06:00;2.42;;;1.77;;
63398;SDS011;49533;-34.520;150.798;2023-03-23T02:08:27;2.55;;;1.90;;
63398;SDS011;49533;-34.520;150.798;2023-03-23T02:10:58;2.63;;;1.88;;
63398;SDS011;49533;-34.520;150.798;2023-03-23T02:13:26;2.60;;;2.20;;
63398;SDS011;49533;-34.520;150.798;2023-03-23T02:18:52;14.48;;;1.95;;
63398;SDS011;49533;-34.520;150.798;2023-03-23T02:21:46;2.70;;;2.17;;
63398;SDS011;49533;-34.520;150.798;2023-03-23T02:24:42;3.72;;;1.85;;
63398;SDS011;49533;-34.520;150.798;2023-03-23T02:27:28;2.08;;;1.75;;
63398;SDS011;49533;-34.520;150.798;2023-03-23T02:30:25;1.90;;;1.65;;
63398;SDS011;49533;-34.520;150.798;2023-03-23T02:33:11;1.55;;;1.45;;
63398;SDS011;49533;-34.520;150.798;2023-03-23T02:35:57;1.45;;;1.35;;
63398;SDS011;49533;-34.520;150.798;2023-03-23T02:38:42;2.25;;;1.52;;
63398;SDS011;49533;-34.520;150.798;2023-03-23T02:41:19;1.80;;;1.70;;
63398;SDS011;49533;-34.520;150.798;2023-03-23T02:43:50;1.63;;;1.50;;
63398;SDS011;49533;-34.520;150.798;2023-03-23T02:46:19;4.47;;;1.63;;
63398;SDS011;49533;-34.520;150.798;2023-03-23T02:48:48;1.88;;;1.50;;
63398;SDS011;49533;-34.520;150.798;2023-03-23T02:51:19;1.33;;;1.30;;
63398;SDS011;49533;-34.520;150.798;2023-03-23T02:53:48;2.33;;;1.42;;
63398;SDS011;49533;-34.520;150.798;2023-03-23T02:56:20;1.17;;;1.08;;
63398;SDS011;49533;-34.520;150.798;2023-03-23T02:58:49;1.60;;;1.50;;
63398;SDS011;49533;-34.520;150.798;2023-03-23T03:04:15;1.60;;;1.50;;
63398;SDS011;49533;-34.520;150.798;2023-03-23T03:06:48;1.27;;;1.20;;
63398;SDS011;49533;-34.520;150.798;2023-03-23T03:09:34;2.78;;;1.80;;
63398;SDS011;49533;-34.520;150.798;2023-03-23T03:12:19;1.45;;;1.35;;
63398;SDS011;49533;-34.520;150.798;2023-03-23T03:14:59;1.63;;;1.33;;
63398;SDS011;49533;-34.520;150.798;2023-03-23T03:17:51;1.45;;;1.35;;
63398;SDS011;49533;-34.520;150.798;2023-03-23T03:20:29;2.38;;;1.35;;
63398;SDS011;49533;-34.520;150.798;2023-03-23T03:22:58;1.23;;;1.13;;
63398;SDS011;49533;-34.520;150.798;2023-03-23T03:25:26;2.00;;;1.40;;
63398;SDS011;49533;-34.520;150.798;2023-03-23T03:27:54;2.40;;;1.45;;
63398;SDS011;49533;-34.520;150.798;2023-03-23T03:30:24;1.30;;;1.15;;
63398;SDS011;49533;-34.520;150.798;2023-03-23T03:32:57;2.35;;;1.15;;
63398;SDS011;49533;-34.520;150.798;2023-03-23T03:35:28;4.13;;;1.23;;
63398;SDS011;49533;-34.520;150.798;2023-03-23T03:37:57;2.67;;;1.50;;
63398;SDS011;49533;-34.520;150.798;2023-03-23T03:40:34;1.52;;;1.08;;
63398;SDS011;49533;-34.520;150.798;2023-03-23T03:43:01;1.83;;;1.33;;
63398;SDS011;49533;-34.520;150.798;2023-03-23T03:45:29;2.03;;;1.10;;
63398;SDS011;49533;-34.520;150.798;2023-03-23T03:47:56;2.38;;;1.42;;
63398;SDS011;49533;-34.520;150.798;2023-03-23T03:50:23;1.20;;;1.10;;
63398;SDS011;49533;-34.520;150.798;2023-03-23T03:52:51;1.73;;;1.10;;
63398;SDS011;49533;-34.520;150.798;2023-03-23T03:55:19;1.75;;;1.10;;
63398;SDS011;49533;-34.520;150.798;2023-03-23T03:57:47;2.42;;;1.15;;
63398;SDS011;49533;-34.520;150.798;2023-03-23T04:00:14;1.50;;;1.05;;
63398;SDS011;49533;-34.520;150.798;2023-03-23T04:02:43;1.13;;;0.90;;
63398;SDS011;49533;-34.520;150.798;2023-03-23T04:05:13;3.50;;;1.00;;
63398;SDS011;49533;-34.520;150.798;2023-03-23T04:07:40;2.95;;;1.20;;
63398;SDS011;49533;-34.520;150.798;2023-03-23T04:10:08;3.55;;;1.30;;
63398;SDS011;49533;-34.520;150.798;2023-03-23T04:12:37;1.00;;;0.90;;
63398;SDS011;49533;-34.520;150.798;2023-03-23T04:15:04;2.10;;;1.20;;
63398;SDS011;49533;-34.520;150.798;2023-03-23T04:17:33;2.90;;;1.10;;
63398;SDS011;49533;-34.520;150.798;2023-03-23T04:20:01;6.72;;;1.35;;
63398;SDS011;49533;-34.520;150.798;2023-03-23T04:22:38;3.47;;;1.42;;
63398;SDS011;49533;-34.520;150.798;2023-03-23T04:25:10;3.80;;;1.27;;
63398;SDS011;49533;-34.520;150.798;2023-03-23T04:27:39;5.10;;;1.55;;
63398;SDS011;49533;-34.520;150.798;2023-03-23T04:30:09;2.10;;;0.98;;
63398;SDS011;49533;-34.520;150.798;2023-03-23T04:32:39;4.35;;;1.67;;
63398;SDS011;49533;-34.520;150.798;2023-03-23T04:35:09;4.05;;;1.80;;
63398;SDS011;49533;-34.520;150.798;2023-03-23T04:37:38;6.05;;;1.10;;
63398;SDS011;49533;-34.520;150.798;2023-03-23T04:40:09;1.88;;;0.98;;
63398;SDS011;49533;-34.520;150.798;2023-03-23T04:42:38;3.05;;;1.45;;
63398;SDS011;49533;-34.520;150.798;2023-03-23T04:45:06;3.85;;;1.30;;
63398;SDS011;49533;-34.520;150.798;2023-03-23T04:47:35;4.20;;;1.23;;
63398;SDS011;49533;-34.520;150.798;2023-03-23T04:50:07;4.13;;;1.30;;
63398;SDS011;49533;-34.520;150.798;2023-03-23T04:52:37;4.15;;;1.40;;
63398;SDS011;49533;-34.520;150.798;2023-03-23T04:55:06;2.95;;;1.35;;
63398;SDS011;49533;-34.520;150.798;2023-03-23T04:57:35;2.13;;;0.85;;
63398;SDS011;49533;-34.520;150.798;2023-03-23T05:00:04;2.00;;;1.00;;
63398;SDS011;49533;-34.520;150.798;2023-03-23T05:02:35;1.00;;;0.90;;
63398;SDS011;49533;-34.520;150.798;2023-03-23T05:05:05;1.45;;;0.90;;
63398;SDS011;49533;-34.520;150.798;2023-03-23T05:07:33;1.23;;;1.05;;
63398;SDS011;49533;-34.520;150.798;2023-03-23T05:10:02;0.93;;;0.88;;
63398;SDS011;49533;-34.520;150.798;2023-03-23T05:12:30;2.53;;;1.10;;
63398;SDS011;49533;-34.520;150.798;2023-03-23T05:14:57;1.55;;;1.00;;
63398;SDS011;49533;-34.520;150.798;2023-03-23T05:17:24;1.58;;;1.10;;
63398;SDS011;49533;-34.520;150.798;2023-03-23T05:19:52;2.67;;;0.75;;
63398;SDS011;49533;-34.520;150.798;2023-03-23T05:22:22;2.00;;;1.00;;
63398;SDS011;49533;-34.520;150.798;2023-03-23T05:24:49;2.22;;;0.90;;
63398;SDS011;49533;-34.520;150.798;2023-03-23T05:27:18;2.35;;;0.80;;
63398;SDS011;49533;-34.520;150.798;2023-03-23T05:29:45;4.25;;;1.10;;
63398;SDS011;49533;-34.520;150.798;2023-03-23T05:32:15;2.42;;;1.10;;
63398;SDS011;49533;-34.520;150.798;2023-03-23T05:34:42;2.95;;;0.98;;
63398;SDS011;49533;-34.520;150.798;2023-03-23T05:37:09;1.65;;;1.00;;
63398;SDS011;49533;-34.520;150.798;2023-03-23T05:39:37;1.75;;;0.90;;
63398;SDS011;49533;-34.520;150.798;2023-03-23T05:42:05;4.20;;;0.80;;
63398;SDS011;49533;-34.520;150.798;2023-03-23T05:44:33;0.95;;;0.80;;
63398;SDS011;49533;-34.520;150.798;2023-03-23T05:47:00;3.22;;;0.65;;
63398;SDS011;49533;-34.520;150.798;2023-03-23T05:49:27;1.70;;;0.90;;
63398;SDS011;49533;-34.520;150.798;2023-03-23T05:51:54;1.05;;;0.88;;
63398;SDS011;49533;-34.520;150.798;2023-03-23T05:54:21;1.40;;;0.80;;
63398;SDS011;49533;-34.520;150.798;2023-03-23T05:56:48;0.77;;;0.77;;
63398;SDS011;49533;-34.520;150.798;2023-03-23T05:59:15;0.98;;;0.68;;
63398;SDS011;49533;-34.520;150.798;2023-03-23T06:01:42;3.60;;;0.80;;
63398;SDS011;49533;-34.520;150.798;2023-03-23T06:04:10;0.70;;;0.70;;
63398;SDS011;49533;-34.520;150.798;2023-03-23T06:06:39;1.67;;;1.10;;
63398;SDS011;49533;-34.520;150.798;2023-03-23T06:09:07;0.85;;;0.57;;
63398;SDS011;49533;-34.520;150.798;2023-03-23T06:11:35;1.38;;;1.00;;
63398;SDS011;49533;-34.520;150.798;2023-03-23T06:14:03;1.00;;;0.70;;
63398;SDS011;49533;-34.520;150.798;2023-03-23T06:16:30;1.30;;;0.82;;
63398;SDS011;49533;-34.520;150.798;2023-03-23T06:18:57;0.98;;;0.75;;
63398;SDS011;49533;-34.520;150.798;2023-03-23T06:21:26;2.60;;;1.00;;
63398;SDS011;49533;-34.520;150.798;2023-03-23T06:23:53;2.17;;;0.82;;
63398;SDS011;49533;-34.520;150.798;2023-03-23T06:26:21;3.55;;;1.20;;
63398;SDS011;49533;-34.520;150.798;2023-03-23T06:28:53;1.15;;;0.80;;
63398;SDS011;49533;-34.520;150.798;2023-03-23T06:31:21;0.95;;;0.55;;
63398;SDS011;49533;-34.520;150.798;2023-03-23T06:33:48;2.15;;;0.75;;
63398;SDS011;49533;-34.520;150.798;2023-03-23T06:36:16;1.77;;;0.80;;
63398;SDS011;49533;-34.520;150.798;2023-03-23T06:38:43;2.30;;;0.70;;
63398;SDS011;49533;-34.520;150.798;2023-03-23T06:41:11;1.52;;;0.80;;
63398;SDS011;49533;-34.520;150.798;2023-03-23T06:43:38;1.23;;;1.13;;
63398;SDS011;49533;-34.520;150.798;2023-03-23T06:46:06;1.33;;;0.90;;
63398;SDS011;49533;-34.520;150.798;2023-03-23T06:48:33;2.30;;;0.95;;
63398;SDS011;49533;-34.520;150.798;2023-03-23T06:51:01;1.70;;;1.27;;
63398;SDS011;49533;-34.520;150.798;2023-03-23T06:53:28;2.55;;;1.10;;
63398;SDS011;49533;-34.520;150.798;2023-03-23T06:55:55;2.30;;;1.27;;
63398;SDS011;49533;-34.520;150.798;2023-03-23T06:58:22;2.63;;;1.20;;
63398;SDS011;49533;-34.520;150.798;2023-03-23T07:00:53;2.33;;;1.13;;
63398;SDS011;49533;-34.520;150.798;2023-03-23T07:03:22;1.25;;;1.08;;
63398;SDS011;49533;-34.520;150.798;2023-03-23T07:05:51;1.80;;;1.45;;
63398;SDS011;49533;-34.520;150.798;2023-03-23T07:08:18;2.50;;;1.40;;
63398;SDS011;49533;-34.520;150.798;2023-03-23T07:10:46;1.75;;;1.30;;
63398;SDS011;49533;-34.520;150.798;2023-03-23T07:13:17;3.00;;;1.17;;
63398;SDS011;49533;-34.520;150.798;2023-03-23T07:15:45;2.33;;;1.45;;
63398;SDS011;49533;-34.520;150.798;2023-03-23T07:18:14;2.35;;;1.35;;
63398;SDS011;49533;-34.520;150.798;2023-03-23T07:20:41;1.67;;;1.40;;
63398;SDS011;49533;-34.520;150.798;2023-03-23T07:23:08;1.25;;;1.13;;
63398;SDS011;49533;-34.520;150.798;2023-03-23T07:25:35;3.60;;;1.27;;
63398;SDS011;49533;-34.520;150.798;2023-03-23T07:28:03;2.85;;;1.50;;
63398;SDS011;49533;-34.520;150.798;2023-03-23T07:30:30;4.30;;;1.30;;
63398;SDS011;49533;-34.520;150.798;2023-03-23T07:32:57;1.77;;;1.15;;
63398;SDS011;49533;-34.520;150.798;2023-03-23T07:35:25;2.75;;;1.48;;
63398;SDS011;49533;-34.520;150.798;2023-03-23T07:37:52;2.70;;;1.33;;
63398;SDS011;49533;-34.520;150.798;2023-03-23T07:40:19;2.97;;;1.40;;
63398;SDS011;49533;-34.520;150.798;2023-03-23T07:42:51;2.17;;;1.38;;
63398;SDS011;49533;-34.520;150.798;2023-03-23T07:47:47;2.05;;;1.23;;
63398;SDS011;49533;-34.520;150.798;2023-03-23T07:50:14;3.08;;;1.00;;
63398;SDS011;49533;-34.520;150.798;2023-03-23T07:52:42;2.22;;;1.08;;
63398;SDS011;49533;-34.520;150.798;2023-03-23T07:55:10;2.50;;;1.10;;
63398;SDS011;49533;-34.520;150.798;2023-03-23T07:57:44;1.30;;;1.20;;
63398;SDS011;49533;-34.520;150.798;2023-03-23T08:00:13;0.90;;;0.80;;
63398;SDS011;49533;-34.520;150.798;2023-03-23T08:02:44;2.03;;;1.42;;
63398;SDS011;49533;-34.520;150.798;2023-03-23T08:05:12;1.77;;;1.40;;
63398;SDS011;49533;-34.520;150.798;2023-03-23T08:07:40;2.78;;;1.23;;
63398;SDS011;49533;-34.520;150.798;2023-03-23T08:10:10;1.48;;;1.10;;
63398;SDS011;49533;-34.520;150.798;2023-03-23T08:12:39;2.42;;;1.38;;
63398;SDS011;49533;-34.520;150.798;2023-03-23T08:15:09;1.45;;;1.00;;
63398;SDS011;49533;-34.520;150.798;2023-03-23T08:17:39;2.17;;;1.30;;
63398;SDS011;49533;-34.520;150.798;2023-03-23T08:20:07;1.70;;;1.15;;
63398;SDS011;49533;-34.520;150.798;2023-03-23T08:22:39;0.70;;;0.70;;
63398;SDS011;49533;-34.520;150.798;2023-03-23T08:25:09;3.72;;;1.20;;
63398;SDS011;49533;-34.520;150.798;2023-03-23T08:27:37;1.73;;;1.05;;
63398;SDS011;49533;-34.520;150.798;2023-03-23T08:30:11;1.98;;;1.40;;
63398;SDS011;49533;-34.520;150.798;2023-03-23T08:32:40;1.50;;;0.95;;
63398;SDS011;49533;-34.520;150.798;2023-03-23T08:35:08;1.33;;;1.02;;
63398;SDS011;49533;-34.520;150.798;2023-03-23T08:37:37;2.72;;;1.10;;
63398;SDS011;49533;-34.520;150.798;2023-03-23T08:40:05;1.30;;;0.80;;
63398;SDS011;49533;-34.520;150.798;2023-03-23T08:42:36;1.45;;;0.93;;
63398;SDS011;49533;-34.520;150.798;2023-03-23T08:45:05;1.10;;;0.88;;
63398;SDS011;49533;-34.520;150.798;2023-03-23T08:47:34;1.38;;;1.10;;
63398;SDS011;49533;-34.520;150.798;2023-03-23T08:50:03;1.10;;;0.73;;
63398;SDS011;49533;-34.520;150.798;2023-03-23T08:52:32;1.67;;;1.10;;
63398;SDS011;49533;-34.520;150.798;2023-03-23T08:54:59;1.10;;;0.93;;
63398;SDS011;49533;-34.520;150.798;2023-03-23T08:57:27;1.42;;;0.77;;
63398;SDS011;49533;-34.520;150.798;2023-03-23T08:59:54;2.08;;;0.75;;
63398;SDS011;49533;-34.520;150.798;2023-03-23T09:02:26;1.00;;;0.88;;
63398;SDS011;49533;-34.520;150.798;2023-03-23T09:04:56;2.40;;;0.68;;
63398;SDS011;49533;-34.520;150.798;2023-03-23T09:07:23;0.82;;;0.82;;
63398;SDS011;49533;-34.520;150.798;2023-03-23T09:09:50;0.60;;;0.60;;
63398;SDS011;49533;-34.520;150.798;2023-03-23T09:12:17;1.67;;;1.13;;
63398;SDS011;49533;-34.520;150.798;2023-03-23T09:14:45;1.85;;;0.77;;
63398;SDS011;49533;-34.520;150.798;2023-03-23T09:17:12;1.13;;;0.60;;
63398;SDS011;49533;-34.520;150.798;2023-03-23T09:19:39;1.00;;;0.70;;
63398;SDS011;49533;-34.520;150.798;2023-03-23T09:22:07;1.50;;;0.70;;
63398;SDS011;49533;-34.520;150.798;2023-03-23T09:24:34;1.05;;;0.70;;
63398;SDS011;49533;-34.520;150.798;2023-03-23T09:27:01;0.82;;;0.80;;
63398;SDS011;49533;-34.520;150.798;2023-03-23T09:29:28;1.27;;;0.60;;
63398;SDS011;49533;-34.520;150.798;2023-03-23T09:31:56;0.60;;;0.60;;
63398;SDS011;49533;-34.520;150.798;2023-03-23T09:34:23;1.27;;;0.52;;
63398;SDS011;49533;-34.520;150.798;2023-03-23T09:36:50;2.55;;;1.00;;
63398;SDS011;49533;-34.520;150.798;2023-03-23T09:39:17;1.77;;;0.70;;
63398;SDS011;49533;-34.520;150.798;2023-03-23T09:41:59;1.83;;;0.65;;
63398;SDS011;49533;-34.520;150.798;2023-03-23T09:44:44;4.55;;;0.85;;
63398;SDS011;49533;-34.520;150.798;2023-03-23T09:47:36;3.35;;;0.88;;
63398;SDS011;49533;-34.520;150.798;2023-03-23T09:50:12;1.67;;;0.70;;
63398;SDS011;49533;-34.520;150.798;2023-03-23T09:55:26;0.82;;;0.80;;
63398;SDS011;49533;-34.520;150.798;2023-03-23T09:57:59;2.72;;;0.55;;
63398;SDS011;49533;-34.520;150.798;2023-03-23T10:00:37;1.23;;;0.47;;
63398;SDS011;49533;-34.520;150.798;2023-03-23T10:03:13;1.73;;;0.50;;
63398;SDS011;49533;-34.520;150.798;2023-03-23T10:05:45;0.77;;;0.43;;
63398;SDS011;49533;-34.520;150.798;2023-03-23T10:08:14;1.40;;;0.60;;
63398;SDS011;49533;-34.520;150.798;2023-03-23T10:16:37;2.15;;;0.70;;
63398;SDS011;49533;-34.520;150.798;2023-03-23T10:19:20;0.50;;;0.50;;
63398;SDS011;49533;-34.520;150.798;2023-03-23T10:21:59;1.70;;;0.63;;
63398;SDS011;49533;-34.520;150.798;2023-03-23T10:24:36;0.70;;;0.70;;
63398;SDS011;49533;-34.520;150.798;2023-03-23T10:27:23;0.95;;;0.80;;
63398;SDS011;49533;-34.520;150.798;2023-03-23T10:30:02;0.80;;;0.40;;
63398;SDS011;49533;-34.520;150.798;2023-03-23T10:32:52;0.88;;;0.65;;
63398;SDS011;49533;-34.520;150.798;2023-03-23T10:35:25;1.27;;;0.70;;
63398;SDS011;49533;-34.520;150.798;2023-03-23T10:38:09;1.90;;;0.50;;
63398;SDS011;49533;-34.520;150.798;2023-03-23T10:40:46;0.82;;;0.70;;
63398;SDS011;49533;-34.520;150.798;2023-03-23T10:43:22;3.10;;;0.73;;
63398;SDS011;49533;-34.520;150.798;2023-03-23T10:45:54;0.50;;;0.43;;
63398;SDS011;49533;-34.520;150.798;2023-03-23T10:48:31;0.80;;;0.47;;
63398;SDS011;49533;-34.520;150.798;2023-03-23T10:51:04;3.03;;;0.60;;
63398;SDS011;49533;-34.520;150.798;2023-03-23T10:53:37;2.67;;;0.47;;
63398;SDS011;49533;-34.520;150.798;2023-03-23T10:58:51;1.75;;;0.60;;
63398;SDS011;49533;-34.520;150.798;2023-03-23T11:01:19;3.92;;;0.73;;
63398;SDS011;49533;-34.520;150.798;2023-03-23T11:04:00;0.77;;;0.43;;
63398;SDS011;49533;-34.520;150.798;2023-03-23T11:06:29;1.50;;;0.55;;
63398;SDS011;49533;-34.520;150.798;2023-03-23T11:09:12;0.57;;;0.50;;
63398;SDS011;49533;-34.520;150.798;2023-03-23T11:11:43;2.15;;;0.63;;
63398;SDS011;49533;-34.520;150.798;2023-03-23T11:14:20;1.50;;;1.02;;
63398;SDS011;49533;-34.520;150.798;2023-03-23T11:16:54;1.25;;;0.60;;
63398;SDS011;49533;-34.520;150.798;2023-03-23T11:19:25;1.27;;;0.40;;
63398;SDS011;49533;-34.520;150.798;2023-03-23T11:22:05;0.47;;;0.40;;
63398;SDS011;49533;-34.520;150.798;2023-03-23T11:24:35;0.60;;;0.52;;
63398;SDS011;49533;-34.520;150.798;2023-03-23T11:27:09;0.82;;;0.70;;
63398;SDS011;49533;-34.520;150.798;2023-03-23T11:29:48;0.45;;;0.45;;
63398;SDS011;49533;-34.520;150.798;2023-03-23T11:32:22;0.47;;;0.40;;
63398;SDS011;49533;-34.520;150.798;2023-03-23T11:34:54;0.30;;;0.30;;
63398;SDS011;49533;-34.520;150.798;2023-03-23T11:37:29;0.40;;;0.40;;
63398;SDS011;49533;-34.520;150.798;2023-03-23T11:40:14;1.42;;;0.30;;
63398;SDS011;49533;-34.520;150.798;2023-03-23T11:42:44;0.90;;;0.65;;
63398;SDS011;49533;-34.520;150.798;2023-03-23T11:45:17;0.70;;;0.55;;
63398;SDS011;49533;-34.520;150.798;2023-03-23T11:47:56;0.45;;;0.40;;
63398;SDS011;49533;-34.520;150.798;2023-03-23T11:50:44;0.40;;;0.40;;
63398;SDS011;49533;-34.520;150.798;2023-03-23T11:56:24;0.98;;;0.45;;
63398;SDS011;49533;-34.520;150.798;2023-03-23T11:58:57;2.92;;;0.57;;
63398;SDS011;49533;-34.520;150.798;2023-03-23T12:04:23;1.50;;;0.50;;
63398;SDS011;49533;-34.520;150.798;2023-03-23T12:07:03;1.20;;;0.60;;
63398;SDS011;49533;-34.520;150.798;2023-03-23T12:12:40;1.40;;;0.38;;
63398;SDS011;49533;-34.520;150.798;2023-03-23T12:15:21;0.40;;;0.40;;
63398;SDS011;49533;-34.520;150.798;2023-03-23T12:26:50;0.40;;;0.40;;
63398;SDS011;49533;-34.520;150.798;2023-03-23T12:29:33;0.43;;;0.40;;
63398;SDS011;49533;-34.520;150.798;2023-03-23T12:35:18;1.40;;;0.30;;
63398;SDS011;49533;-34.520;150.798;2023-03-23T12:38:01;1.35;;;0.40;;
63398;SDS011;49533;-34.520;150.798;2023-03-23T12:40:54;0.95;;;0.50;;
63398;SDS011;49533;-34.520;150.798;2023-03-23T12:43:38;1.63;;;0.50;;
63398;SDS011;49533;-34.520;150.798;2023-03-23T12:46:21;2.88;;;0.40;;
63398;SDS011;49533;-34.520;150.798;2023-03-23T12:49:00;0.52;;;0.43;;
63398;SDS011;49533;-34.520;150.798;2023-03-23T12:51:38;2.05;;;0.30;;
63398;SDS011;49533;-34.520;150.798;2023-03-23T12:54:23;0.60;;;0.60;;
63398;SDS011;49533;-34.520;150.798;2023-03-23T12:56:58;2.03;;;0.50;;
63398;SDS011;49533;-34.520;150.798;2023-03-23T12:59:39;1.98;;;0.40;;
63398;SDS011;49533;-34.520;150.798;2023-03-23T13:02:27;0.65;;;0.47;;
63398;SDS011;49533;-34.520;150.798;2023-03-23T13:05:00;0.40;;;0.40;;
63398;SDS011;49533;-34.520;150.798;2023-03-23T13:07:36;1.85;;;0.40;;
63398;SDS011;49533;-34.520;150.798;2023-03-23T13:10:22;0.30;;;0.30;;
63398;SDS011;49533;-34.520;150.798;2023-03-23T13:12:54;2.47;;;0.30;;
63398;SDS011;49533;-34.520;150.798;2023-03-23T13:15:29;0.40;;;0.28;;
63398;SDS011;49533;-34.520;150.798;2023-03-23T13:18:17;1.25;;;0.45;;
63398;SDS011;49533;-34.520;150.798;2023-03-23T13:21:12;0.55;;;0.40;;
63398;SDS011;49533;-34.520;150.798;2023-03-23T13:23:48;0.50;;;0.35;;
63398;SDS011;49533;-34.520;150.798;2023-03-23T13:28:51;1.17;;;0.30;;
63398;SDS011;49533;-34.520;150.798;2023-03-23T13:31:28;4.45;;;0.40;;
63398;SDS011;49533;-34.520;150.798;2023-03-23T13:34:04;0.55;;;0.28;;
63398;SDS011;49533;-34.520;150.798;2023-03-23T13:36:39;0.52;;;0.30;;
63398;SDS011;49533;-34.520;150.798;2023-03-23T13:39:20;0.82;;;0.22;;
63398;SDS011;49533;-34.520;150.798;2023-03-23T13:42:00;0.98;;;0.28;;
63398;SDS011;49533;-34.520;150.798;2023-03-23T13:44:42;0.55;;;0.55;;
63398;SDS011;49533;-34.520;150.798;2023-03-23T13:47:35;0.38;;;0.38;;
63398;SDS011;49533;-34.520;150.798;2023-03-23T13:52:54;0.38;;;0.30;;
63398;SDS011;49533;-34.520;150.798;2023-03-23T13:55:30;0.40;;;0.40;;
63398;SDS011;49533;-34.520;150.798;2023-03-23T13:58:10;1.15;;;0.63;;
63398;SDS011;49533;-34.520;150.798;2023-03-23T14:00:45;1.30;;;0.50;;
63398;SDS011;49533;-34.520;150.798;2023-03-23T14:03:18;3.45;;;0.55;;
63398;SDS011;49533;-34.520;150.798;2023-03-23T14:06:01;0.55;;;0.40;;
63398;SDS011;49533;-34.520;150.798;2023-03-23T14:08:39;1.02;;;0.25;;
63398;SDS011;49533;-34.520;150.798;2023-03-23T14:11:11;0.30;;;0.30;;
63398;SDS011;49533;-34.520;150.798;2023-03-23T14:13:58;0.30;;;0.30;;
63398;SDS011;49533;-34.520;150.798;2023-03-23T14:16:36;0.28;;;0.28;;
63398;SDS011;49533;-34.520;150.798;2023-03-23T14:19:16;0.47;;;0.35;;
63398;SDS011;49533;-34.520;150.798;2023-03-23T14:21:57;0.75;;;0.50;;
63398;SDS011;49533;-34.520;150.798;2023-03-23T14:24:27;1.00;;;0.40;;
63398;SDS011;49533;-34.520;150.798;2023-03-23T14:27:02;0.30;;;0.10;;
63398;SDS011;49533;-34.520;150.798;2023-03-23T14:29:37;1.98;;;0.30;;
63398;SDS011;49533;-34.520;150.798;2023-03-23T14:32:06;3.90;;;0.30;;
63398;SDS011;49533;-34.520;150.798;2023-03-23T14:34:39;0.20;;;0.20;;
63398;SDS011;49533;-34.520;150.798;2023-03-23T14:37:08;1.90;;;0.40;;
63398;SDS011;49533;-34.520;150.798;2023-03-23T14:39:43;0.20;;;0.20;;
63398;SDS011;49533;-34.520;150.798;2023-03-23T14:42:13;0.77;;;0.30;;
63398;SDS011;49533;-34.520;150.798;2023-03-23T14:44:43;0.70;;;0.30;;
63398;SDS011;49533;-34.520;150.798;2023-03-23T14:47:16;0.40;;;0.40;;
63398;SDS011;49533;-34.520;150.798;2023-03-23T14:49:52;4.07;;;0.60;;
63398;SDS011;49533;-34.520;150.798;2023-03-23T14:52:26;1.25;;;0.32;;
63398;SDS011;49533;-34.520;150.798;2023-03-23T14:54:55;2.05;;;0.30;;
63398;SDS011;49533;-34.520;150.798;2023-03-23T14:57:33;0.45;;;0.30;;
63398;SDS011;49533;-34.520;150.798;2023-03-23T15:00:01;1.30;;;0.52;;
63398;SDS011;49533;-34.520;150.798;2023-03-23T15:02:31;0.20;;;0.20;;
63398;SDS011;49533;-34.520;150.798;2023-03-23T15:05:04;1.13;;;0.52;;
63398;SDS011;49533;-34.520;150.798;2023-03-23T15:07:43;0.40;;;0.40;;
63398;SDS011;49533;-34.520;150.798;2023-03-23T15:10:15;0.38;;;0.38;;
63398;SDS011;49533;-34.520;150.798;2023-03-23T15:12:45;0.80;;;0.47;;
63398;SDS011;49533;-34.520;150.798;2023-03-23T15:15:34;1.20;;;0.40;;
63398;SDS011;49533;-34.520;150.798;2023-03-23T15:18:01;0.40;;;0.32;;
63398;SDS011;49533;-34.520;150.798;2023-03-23T15:20:31;0.30;;;0.30;;
63398;SDS011;49533;-34.520;150.798;2023-03-23T15:23:14;0.65;;;0.30;;
63398;SDS011;49533;-34.520;150.798;2023-03-23T15:25:48;0.20;;;0.20;;